Time;durP1;ratioP1;P1;durP2;ratioP2;P2;SDS_P1;SDS_P2;PMS_P1;PMS_P2;Temp;Humidity;BMP_temperature;BMP_pressure;BME280_temperature;BME280_humidity;BME280_pressure;Samples;Min_cycle;Max_cycle;Signal;HPM_P1;HPM_P2
2023/11/06 00:00:15;;;;;;;7.80;1.20;;;;;;;13.98;72.98;98664.47;4972818;28;96988;-78
2023/11/06 00:02:42;;;;;;;3.80;1.02;;;;;;;14.30;71.50;98674.28;4970787;28;99266;-78
2023/11/06 00:05:08;;;;;;;6.55;1.10;;;;;;;14.50;69.74;98670.84;4973591;28;99150;-77
2023/11/06 00:07:37;;;;;;;5.32;1.00;;;;;;;14.43;69.00;98669.66;4973857;28;96976;-78
2023/11/06 00:10:04;;;;;;;4.75;1.25;;;;;;;14.23;68.97;98670.44;4973372;28;97826;-79
2023/11/06 00:12:31;;;;;;;4.00;0.93;;;;;;;14.17;70.12;98679.78;4978700;28;99240;-78
2023/11/06 00:14:57;;;;;;;5.35;1.08;;;;;;;14.36;69.31;98684.41;4975003;28;99255;-78
2023/11/06 00:17:24;;;;;;;4.47;0.90;;;;;;;14.61;67.56;98705.31;4972607;28;97271;-79
2023/11/06 00:19:50;;;;;;;4.22;1.08;;;;;;;14.51;68.25;98709.69;4971472;28;96863;-78
2023/11/06 00:22:17;;;;;;;11.52;1.20;;;;;;;14.31;68.92;98713.13;4972103;28;98949;-78
2023/11/06 00:24:45;;;;;;;6.18;1.15;;;;;;;14.46;67.31;98716.38;4973485;28;98669;-78
2023/11/06 00:27:12;;;;;;;4.60;0.75;;;;;;;14.38;67.69;98713.50;4971935;28;96748;-78
2023/11/06 00:29:41;;;;;;;5.47;0.98;;;;;;;14.08;67.87;98723.00;4973327;28;96777;-78
2023/11/06 00:32:07;;;;;;;7.45;0.85;;;;;;;14.20;68.69;98729.97;4971077;28;97874;-79
2023/11/06 00:34:34;;;;;;;5.82;0.82;;;;;;;14.24;68.52;98738.53;4973069;28;98798;-79
2023/11/06 00:37:00;;;;;;;3.63;0.90;;;;;;;14.28;68.95;98726.69;4975833;28;97352;-79
2023/11/06 00:39:27;;;;;;;4.90;0.93;;;;;;;14.42;67.47;98737.06;4973115;28;96788;-78
2023/11/06 00:41:55;;;;;;;2.10;0.90;;;;;;;14.49;66.76;98740.06;4969902;28;99325;-78
2023/11/06 00:44:21;;;;;;;3.67;1.25;;;;;;;14.17;67.99;98750.66;4971871;28;99901;-78
2023/11/06 00:46:48;;;;;;;8.15;0.80;;;;;;;14.07;68.57;98761.16;4972161;28;96876;-78
2023/11/06 00:49:14;;;;;;;5.50;1.40;;;;;;;14.34;68.23;98755.41;4971843;28;96967;-77
2023/11/06 00:51:40;;;;;;;5.13;0.80;;;;;;;14.27;68.17;98757.72;4972958;28;99335;-78
2023/11/06 00:54:07;;;;;;;5.63;0.73;;;;;;;14.27;67.86;98759.53;4972969;28;99057;-77
2023/11/06 00:56:33;;;;;;;3.08;0.70;;;;;;;14.04;68.83;98774.69;4972766;28;97773;-77
2023/11/06 00:59:02;;;;;;;4.15;0.93;;;;;;;14.11;68.94;98780.34;4970353;28;97678;-78
2023/11/06 01:01:29;;;;;;;4.75;0.65;;;;;;;14.26;67.72;98773.78;4970847;28;99718;-78
2023/11/06 01:03:57;;;;;;;2.22;0.85;;;;;;;14.36;66.92;98782.69;4971540;28;99403;-77
2023/11/06 01:06:23;;;;;;;2.60;0.70;;;;;;;14.44;66.96;98792.75;4972797;28;96754;-78
2023/11/06 01:08:49;;;;;;;3.33;0.88;;;;;;;14.51;66.61;98794.75;4972781;28;96920;-78
2023/11/06 01:11:16;;;;;;;2.95;0.75;;;;;;;14.74;65.85;98801.69;4972416;28;98912;-78
2023/11/06 01:13:43;;;;;;;1.95;0.63;;;;;;;14.65;65.65;98797.09;4972133;28;99107;-79
2023/11/06 01:16:10;;;;;;;2.85;0.80;;;;;;;14.16;67.26;98807.38;4972211;28;99309;-78
2023/11/06 01:18:37;;;;;;;5.35;1.00;;;;;;;14.45;67.06;98820.97;4972850;28;96689;-80
2023/11/06 01:21:05;;;;;;;4.75;0.85;;;;;;;14.15;67.17;98829.59;4973639;28;98301;-77
2023/11/06 01:23:31;;;;;;;4.45;0.77;;;;;;;14.05;68.00;98831.28;4971993;28;98877;-78
2023/11/06 01:25:58;;;;;;;1.48;0.80;;;;;;;14.07;67.57;98826.69;4972397;28;96771;-78
2023/11/06 01:28:24;;;;;;;4.53;1.00;;;;;;;14.09;68.25;98836.25;4970518;28;96840;-77
2023/11/06 01:30:51;;;;;;;6.47;0.80;;;;;;;14.21;67.56;98842.38;4971652;28;99147;-78
2023/11/06 01:33:19;;;;;;;2.65;0.88;;;;;;;13.83;68.49;98834.81;4969227;28;99013;-77
2023/11/06 01:35:45;;;;;;;6.88;0.90;;;;;;;13.75;68.86;98839.88;4973275;28;96910;-78
2023/11/06 01:38:12;;;;;;;8.10;1.08;;;;;;;13.99;68.11;98843.25;4971609;28;96797;-78
2023/11/06 01:40:38;;;;;;;5.63;0.90;;;;;;;13.88;68.11;98857.38;4969007;28;99124;-77
2023/11/06 01:43:05;;;;;;;6.35;0.90;;;;;;;14.20;67.35;98860.13;4972618;28;99125;-78
2023/11/06 01:45:32;;;;;;;2.47;0.70;;;;;;;14.30;65.89;98870.88;4971500;28;96778;-78
2023/11/06 01:47:58;;;;;;;4.45;0.88;;;;;;;14.26;66.60;98867.59;4969941;28;97072;-78
2023/11/06 01:50:26;;;;;;;5.82;0.73;;;;;;;14.46;66.33;98881.13;4971890;28;100739;-79
2023/11/06 01:52:53;;;;;;;9.32;1.48;;;;;;;14.43;65.42;98878.75;4972161;28;100985;-79
2023/11/06 01:55:19;;;;;;;4.72;0.63;;;;;;;14.35;65.46;98885.47;4971596;28;96776;-79
2023/11/06 01:57:46;;;;;;;8.20;1.20;;;;;;;14.12;66.35;98885.59;4971843;28;96804;-79
2023/11/06 02:00:15;;;;;;;4.80;0.70;;;;;;;14.15;66.24;98893.34;4962206;28;99065;-78
2023/11/06 02:02:42;;;;;;;3.35;0.70;;;;;;;14.28;65.92;98897.56;4970569;28;99128;-79
2023/11/06 02:05:10;;;;;;;5.68;1.13;;;;;;;14.15;65.58;98893.34;4970894;28;97054;-78
2023/11/06 02:07:38;;;;;;;4.65;0.70;;;;;;;14.48;64.64;98896.00;4971313;28;96708;-78
2023/11/06 02:10:05;;;;;;;4.68;1.08;;;;;;;14.61;63.52;98909.97;4968721;28;101387;-78
2023/11/06 02:12:32;;;;;;;2.53;1.05;;;;;;;14.50;63.76;98899.38;4972423;28;99237;-78
2023/11/06 02:14:59;;;;;;;3.60;0.80;;;;;;;14.60;63.21;98905.63;4970716;28;96952;-78
2023/11/06 02:17:26;;;;;;;5.35;0.88;;;;;;;14.50;64.07;98907.34;4968594;28;99213;-78
2023/11/06 02:19:52;;;;;;;3.13;0.70;;;;;;;14.40;63.27;98910.84;4970831;28;100726;-78
2023/11/06 02:22:20;;;;;;;3.13;0.88;;;;;;;14.00;64.40;98919.28;4968675;28;99853;-78
2023/11/06 02:24:49;;;;;;;5.82;0.75;;;;;;;14.12;64.19;98915.66;4970268;28;96972;-79
2023/11/06 02:27:15;;;;;;;2.85;0.70;;;;;;;14.24;63.83;98929.81;4971062;28;99623;-79
2023/11/06 02:29:42;;;;;;;4.38;0.93;;;;;;;14.45;63.03;98935.25;4970489;28;99635;-78
2023/11/06 02:32:09;;;;;;;6.10;1.20;;;;;;;14.55;62.76;98938.88;4970033;28;99430;-78
2023/11/06 02:34:36;;;;;;;2.92;0.80;;;;;;;14.82;61.60;98941.97;4970301;28;96853;-78
2023/11/06 02:37:03;;;;;;;5.57;0.80;;;;;;;14.56;62.08;98962.69;4970506;28;96892;-78
2023/11/06 02:39:29;;;;;;;3.08;0.80;;;;;;;14.54;61.77;98945.16;4970310;28;98942;-78
2023/11/06 02:41:57;;;;;;;8.52;1.23;;;;;;;14.61;61.76;98959.63;4970500;28;99499;-78
2023/11/06 02:44:23;;;;;;;4.72;1.10;;;;;;;14.44;62.44;98971.59;4970278;28;98823;-78
2023/11/06 02:46:49;;;;;;;4.22;1.25;;;;;;;14.62;61.96;98983.44;4970944;28;96752;-79
2023/11/06 02:49:16;;;;;;;3.80;0.90;;;;;;;14.22;62.36;98975.09;4970691;28;99193;-78
2023/11/06 02:51:42;;;;;;;13.23;1.08;;;;;;;14.14;63.65;98980.16;4970976;28;101634;-79
2023/11/06 02:54:08;;;;;;;6.15;1.20;;;;;;;14.14;63.61;98987.25;4971461;28;96802;-78
2023/11/06 02:56:35;;;;;;;2.58;0.90;;;;;;;14.18;63.54;98981.59;4970837;28;96916;-78
2023/11/06 02:59:04;;;;;;;5.78;1.33;;;;;;;14.08;63.99;98998.38;4973759;28;99354;-78
2023/11/06 03:01:31;;;;;;;3.78;0.82;;;;;;;14.17;63.04;99013.59;4968807;28;99094;-78
2023/11/06 03:03:58;;;;;;;2.92;0.70;;;;;;;13.96;63.63;99003.66;4969286;28;96715;-79
2023/11/06 03:06:27;;;;;;;3.80;0.70;;;;;;;14.03;64.13;99008.50;4970774;28;97585;-78
2023/11/06 03:08:53;;;;;;;2.72;0.80;;;;;;;14.27;63.02;99022.53;4966332;28;99084;-78
2023/11/06 03:11:20;;;;;;;2.95;0.75;;;;;;;14.42;62.11;99024.03;4972995;28;99174;-79
2023/11/06 03:13:45;;;;;;;1.30;0.70;;;;;;;14.13;62.90;99033.38;4976713;28;96727;-79
2023/11/06 03:16:14;;;;;;;;;;;;;;;13.84;64.09;99028.50;4977402;28;96816;-79
2023/11/06 03:18:40;;;;;;;3.10;0.90;;;;;;;13.89;64.29;99026.34;4976896;28;99314;-78
2023/11/06 03:21:07;;;;;;;6.00;0.88;;;;;;;13.54;65.05;99042.25;4977013;28;97800;-78
2023/11/06 03:23:33;;;;;;;3.55;0.95;;;;;;;13.66;65.36;99039.63;4975708;28;96761;-78
2023/11/06 03:26:00;;;;;;;3.47;1.27;;;;;;;13.52;66.07;99053.97;4977948;28;96753;-77
2023/11/06 03:28:26;;;;;;;5.97;0.90;;;;;;;13.31;67.17;99050.22;4977033;28;99260;-77
2023/11/06 03:30:53;;;;;;;5.18;0.90;;;;;;;13.55;66.04;99061.69;4976230;28;99115;-77
2023/11/06 03:33:21;;;;;;;6.57;0.80;;;;;;;13.46;66.59;99065.00;4974335;28;96793;-76
2023/11/06 03:35:47;;;;;;;3.80;1.02;;;;;;;13.66;65.56;99077.63;4976487;28;97777;-77
2023/11/06 03:38:14;;;;;;;5.50;1.13;;;;;;;13.74;65.74;99069.13;4977371;28;99022;-77
2023/11/06 03:40:40;;;;;;;1.40;0.93;;;;;;;13.94;64.72;99071.97;4976848;28;98775;-77
2023/11/06 03:43:07;;;;;;;4.85;0.90;;;;;;;14.05;63.93;99081.75;4975647;28;97013;-77
2023/11/06 03:45:33;;;;;;;4.60;0.93;;;;;;;14.07;63.65;99074.53;4984917;28;97035;-77
2023/11/06 03:47:59;;;;;;;2.90;0.90;;;;;;;13.72;64.48;99082.50;4976570;28;98937;-77
2023/11/06 03:50:27;;;;;;;4.85;0.70;;;;;;;13.68;65.44;99083.69;4977004;28;100834;-77
2023/11/06 03:52:53;;;;;;;6.93;0.80;;;;;;;13.62;65.50;99086.81;4975078;28;96890;-76
2023/11/06 03:55:20;;;;;;;7.05;1.27;;;;;;;13.79;64.76;99094.34;4977144;28;97113;-77
2023/11/06 03:57:46;;;;;;;5.35;1.05;;;;;;;13.85;64.48;99095.69;4974855;28;99732;-76
2023/11/06 04:00:13;;;;;;;5.40;0.85;;;;;;;13.92;64.01;99104.91;4976995;28;99291;-77
2023/11/06 04:02:39;;;;;;;4.70;1.00;;;;;;;14.23;63.11;99109.63;4976870;28;98085;-77
2023/11/06 04:05:07;;;;;;;3.53;0.80;;;;;;;14.22;62.85;99115.88;4974816;28;97096;-77
2023/11/06 04:07:35;;;;;;;5.90;0.73;;;;;;;14.18;62.93;99126.84;4973647;28;99221;-77
2023/11/06 04:10:01;;;;;;;3.67;0.73;;;;;;;13.97;63.50;99124.00;4977563;28;98844;-76
2023/11/06 04:12:27;;;;;;;3.65;0.98;;;;;;;13.73;64.45;99123.16;4975702;28;96829;-77
2023/11/06 04:14:55;;;;;;;5.68;1.55;;;;;;;14.02;63.69;99132.47;4977262;28;97178;-76
2023/11/06 04:17:21;;;;;;;5.18;0.85;;;;;;;13.95;63.70;99132.09;4974207;28;99070;-77
2023/11/06 04:19:47;;;;;;;5.50;1.00;;;;;;;13.73;64.46;99131.97;4975423;28;99418;-77
2023/11/06 04:22:14;;;;;;;2.88;0.70;;;;;;;13.68;64.58;99138.59;4974676;28;96778;-77
2023/11/06 04:24:41;;;;;;;3.63;0.80;;;;;;;13.90;63.94;99139.56;4971270;28;96778;-76
2023/11/06 04:27:08;;;;;;;3.70;0.98;;;;;;;13.93;63.78;99141.97;4972583;28;98873;-77
2023/11/06 04:29:36;;;;;;;2.47;0.70;;;;;;;13.92;63.67;99147.38;4976100;28;98800;-77
2023/11/06 04:32:03;;;;;;;8.02;0.80;;;;;;;14.07;63.49;99150.72;4973490;28;97119;-77
2023/11/06 04:34:29;;;;;;;2.53;0.65;;;;;;;13.98;63.75;99152.22;4973246;28;96803;-76
2023/11/06 04:36:56;;;;;;;6.55;1.20;;;;;;;14.10;63.16;99161.97;4972013;28;99215;-77
2023/11/06 04:39:22;;;;;;;4.35;1.10;;;;;;;13.95;63.67;99163.09;4972590;28;101045;-77
2023/11/06 04:41:50;;;;;;;2.08;0.80;;;;;;;13.88;63.77;99172.47;4971576;28;96981;-77
2023/11/06 04:44:16;;;;;;;10.63;1.02;;;;;;;13.96;63.91;99172.75;4972773;28;98007;-76
2023/11/06 04:46:43;;;;;;;4.30;0.80;;;;;;;13.79;64.10;99174.00;4972590;28;97893;-76
2023/11/06 04:49:09;;;;;;;2.90;0.73;;;;;;;13.53;64.98;99178.53;4973660;28;102319;-76
2023/11/06 04:51:36;;;;;;;6.45;0.80;;;;;;;13.82;64.10;99179.09;4971991;28;96800;-75
2023/11/06 04:54:02;;;;;;;2.58;1.02;;;;;;;13.68;65.05;99181.06;4973181;28;98507;-77
2023/11/06 04:56:28;;;;;;;4.75;0.70;;;;;;;13.37;65.66;99185.06;4973592;28;99188;-75
2023/11/06 04:58:56;;;;;;;4.30;0.90;;;;;;;13.72;64.92;99193.16;4972452;28;97733;-76
2023/11/06 05:01:22;;;;;;;9.13;0.88;;;;;;;14.02;63.94;99182.94;4971638;28;96811;-76
2023/11/06 05:03:49;;;;;;;8.23;0.90;;;;;;;14.03;63.22;99186.44;4973765;28;97201;-76
2023/11/06 05:06:15;;;;;;;3.42;0.60;;;;;;;14.10;63.02;99193.84;4974882;28;98863;-76
2023/11/06 05:08:42;;;;;;;2.33;0.88;;;;;;;13.94;63.60;99201.22;4972305;28;99006;-76
2023/11/06 05:11:08;;;;;;;3.75;0.50;;;;;;;14.05;63.47;99209.25;4972772;28;97972;-76
2023/11/06 05:13:34;;;;;;;5.40;0.98;;;;;;;14.10;63.22;99198.31;4972009;28;97397;-76
2023/11/06 05:16:04;;;;;;;3.65;0.82;;;;;;;14.24;62.68;99211.41;4971429;28;98981;-76
2023/11/06 05:18:30;;;;;;;4.70;0.75;;;;;;;14.51;61.39;99213.81;4971974;28;98960;-77
2023/11/06 05:20:56;;;;;;;9.60;0.90;;;;;;;14.53;61.22;99218.06;4971958;28;97205;-76
2023/11/06 05:23:23;;;;;;;6.50;0.80;;;;;;;14.75;60.78;99220.78;4972427;28;97123;-76
2023/11/06 05:25:49;;;;;;;5.22;0.70;;;;;;;14.59;61.50;99222.06;4972946;28;97619;-76
2023/11/06 05:28:16;;;;;;;3.47;0.80;;;;;;;14.40;61.50;99227.91;4971243;28;99164;-76
2023/11/06 05:30:42;;;;;;;3.05;0.85;;;;;;;14.45;61.57;99233.72;4969330;28;96935;-76
2023/11/06 05:33:10;;;;;;;1.98;0.63;;;;;;;14.52;61.26;99234.97;4972510;28;96987;-76
2023/11/06 05:35:37;;;;;;;3.25;0.70;;;;;;;14.29;62.60;99235.81;4967303;28;98887;-76
2023/11/06 05:38:04;;;;;;;8.85;1.00;;;;;;;14.62;61.61;99229.81;4968149;28;101723;-77
2023/11/06 05:40:30;;;;;;;5.03;0.80;;;;;;;14.44;61.98;99242.66;4971013;28;96757;-77
2023/11/06 05:42:56;;;;;;;4.07;0.90;;;;;;;14.29;62.63;99247.28;4971894;28;96845;-77
2023/11/06 05:45:23;;;;;;;6.25;0.85;;;;;;;14.28;62.61;99244.75;4970440;28;98849;-76
2023/11/06 05:47:51;;;;;;;3.35;0.68;;;;;;;14.36;62.39;99243.22;4972839;28;99051;-76
2023/11/06 05:50:18;;;;;;;5.35;1.02;;;;;;;14.30;62.61;99248.16;4971241;28;96673;-76
2023/11/06 05:52:47;;;;;;;2.67;0.90;;;;;;;14.35;62.47;99254.81;4971007;28;96871;-75
2023/11/06 05:55:13;;;;;;;5.13;0.73;;;;;;;14.41;62.37;99260.66;4966835;28;100146;-76
2023/11/06 05:57:40;;;;;;;5.30;1.65;;;;;;;14.40;62.20;99273.09;4970766;28;97572;-77
2023/11/06 06:00:11;;;;;;;3.97;0.85;;;;;;;14.27;62.95;99274.94;4968451;28;97045;-76
2023/11/06 06:02:37;;;;;;;4.93;0.80;;;;;;;14.41;62.35;99281.91;4969329;28;101008;-76
2023/11/06 06:05:05;;;;;;;7.07;1.25;;;;;;;14.45;62.05;99284.22;4970577;28;99492;-76
2023/11/06 06:07:43;;;;;;;5.20;1.15;;;;;;;14.37;62.25;99289.25;4970951;28;98989;-77
2023/11/06 06:10:11;;;;;;;1.90;0.65;;;;;;;14.51;61.59;99297.06;4970136;28;99047;-77
2023/11/06 06:12:38;;;;;;;6.75;0.95;;;;;;;14.41;61.87;99301.38;4972629;28;97199;-77
2023/11/06 06:15:06;;;;;;;4.07;0.50;;;;;;;14.49;62.04;99312.28;4970697;28;101361;-77
2023/11/06 06:17:34;;;;;;;5.63;0.75;;;;;;;14.42;61.99;99299.56;4969324;28;98971;-76
2023/11/06 06:20:03;;;;;;;3.55;0.55;;;;;;;14.38;62.55;99301.56;4971139;28;96700;-77
2023/11/06 06:22:29;;;;;;;2.30;0.60;;;;;;;14.40;62.12;99312.97;4970629;28;96772;-76
2023/11/06 06:24:58;;;;;;;2.17;0.70;;;;;;;14.48;62.07;99307.94;4970361;28;98213;-76
2023/11/06 06:27:24;;;;;;;2.25;1.00;;;;;;;14.50;62.33;99314.00;4971243;28;99205;-77
2023/11/06 06:29:52;;;;;;;7.03;0.80;;;;;;;14.57;61.63;99315.19;4968840;28;96673;-77
2023/11/06 06:32:18;;;;;;;5.93;0.80;;;;;;;14.62;61.56;99318.38;4971568;28;97352;-77
2023/11/06 06:34:47;;;;;;;3.20;0.63;;;;;;;14.67;61.42;99332.19;4971151;28;97751;-77
2023/11/06 06:37:14;;;;;;;9.18;0.90;;;;;;;14.73;60.89;99333.53;4976279;28;99079;-77
2023/11/06 06:39:40;;;;;;;6.50;1.10;;;;;;;14.56;61.50;99337.47;4969888;28;97164;-76
2023/11/06 06:42:08;;;;;;;5.30;0.80;;;;;;;14.42;62.04;99347.41;4967071;28;96901;-76
2023/11/06 06:44:34;;;;;;;4.38;0.70;;;;;;;14.31;62.88;99346.31;4962214;28;99206;-76
2023/11/06 06:47:01;;;;;;;8.05;1.10;;;;;;;14.22;62.70;99354.13;4955725;28;99189;-77
2023/11/06 06:49:32;;;;;;;5.35;0.75;;;;;;;14.27;63.22;99363.47;4953935;28;100621;-77
2023/11/06 06:52:01;;;;;;;9.25;0.60;;;;;;;14.28;63.45;99361.66;4953113;28;99663;-77
2023/11/06 06:54:27;;;;;;;3.78;0.77;;;;;;;14.59;62.47;99368.25;4967995;28;98867;-77
2023/11/06 06:56:55;;;;;;;2.45;0.77;;;;;;;14.41;62.67;99373.13;4964447;28;102083;-77
2023/11/06 06:59:23;;;;;;;4.40;1.00;;;;;;;14.66;62.25;99372.16;4970196;28;97212;-77
2023/11/06 07:01:49;;;;;;;4.18;0.65;;;;;;;14.74;61.68;99386.59;4972070;28;97006;-77
2023/11/06 07:04:15;;;;;;;5.93;0.60;;;;;;;14.91;61.29;99389.81;4969807;28;101726;-77
2023/11/06 07:06:42;;;;;;;5.03;0.88;;;;;;;14.59;62.01;99381.56;4971391;28;98410;-77
2023/11/06 07:09:08;;;;;;;3.15;0.60;;;;;;;14.66;62.18;99393.44;4970528;28;96818;-77
2023/11/06 07:11:35;;;;;;;4.53;0.75;;;;;;;14.55;62.34;99388.91;4962124;28;97903;-77
2023/11/06 07:14:02;;;;;;;5.38;0.80;;;;;;;14.56;62.71;99393.28;4970890;28;98954;-77
2023/11/06 07:16:29;;;;;;;5.90;0.70;;;;;;;14.91;62.05;99395.13;4965565;28;101062;-76
2023/11/06 07:18:56;;;;;;;3.83;0.98;;;;;;;15.04;61.47;99410.06;4970762;28;97340;-76
2023/11/06 07:21:23;;;;;;;4.65;1.40;;;;;;;15.23;60.87;99400.72;4964964;28;97107;-76
2023/11/06 07:23:49;;;;;;;4.45;0.60;;;;;;;15.21;60.34;99411.47;4968862;28;99278;-76
2023/11/06 07:26:16;;;;;;;4.00;0.50;;;;;;;15.01;61.06;99412.97;4969580;28;98765;-77
2023/11/06 07:28:44;;;;;;;5.22;0.70;;;;;;;14.91;61.12;99406.59;4970186;28;98396;-76
2023/11/06 07:31:10;;;;;;;1.95;0.63;;;;;;;14.95;61.52;99415.22;4970588;28;96785;-76
2023/11/06 07:33:38;;;;;;;4.68;0.90;;;;;;;14.93;61.52;99423.31;4967673;28;99893;-75
2023/11/06 07:36:06;;;;;;;3.20;0.82;;;;;;;14.59;62.48;99422.28;4962852;28;97705;-76
2023/11/06 07:38:33;;;;;;;6.93;0.70;;;;;;;14.53;63.38;99430.69;4968761;28;97009;-77
2023/11/06 07:40:59;;;;;;;5.22;0.60;;;;;;;14.25;64.18;99426.47;4966523;28;96916;-77
2023/11/06 07:43:25;;;;;;;1.38;0.52;;;;;;;14.52;63.33;99429.00;4960524;28;99209;-76
2023/11/06 07:45:53;;;;;;;3.65;0.63;;;;;;;14.63;63.15;99436.22;4970882;28;97818;-76
2023/11/06 07:48:20;;;;;;;4.43;0.93;;;;;;;14.90;62.26;99439.47;4969171;28;96939;-77
2023/11/06 07:50:48;;;;;;;6.63;0.90;;;;;;;14.98;62.74;99436.25;4966943;28;97754;-76
2023/11/06 07:53:14;;;;;;;4.30;0.80;;;;;;;15.17;61.53;99439.25;4965546;28;99479;-76
2023/11/06 07:55:40;;;;;;;4.68;0.93;;;;;;;14.87;62.25;99444.19;4961440;28;98992;-76
2023/11/06 07:58:07;;;;;;;5.18;0.70;;;;;;;15.00;61.72;99439.66;4965702;28;97264;-76
2023/11/06 08:00:35;;;;;;;3.60;0.77;;;;;;;14.86;62.33;99445.16;4964551;28;96767;-76
2023/11/06 08:03:02;;;;;;;2.03;0.60;;;;;;;15.12;62.09;99458.22;4973421;28;98904;-76
2023/11/06 08:05:31;;;;;;;2.88;0.50;;;;;;;15.24;61.66;99458.25;4969195;28;98646;-76
2023/11/06 08:07:58;;;;;;;6.72;0.65;;;;;;;15.00;61.89;99466.25;4966599;28;98125;-76
2023/11/06 08:10:29;;;;;;;3.35;0.60;;;;;;;14.81;62.59;99473.91;4971304;28;96770;-77
2023/11/06 08:12:55;;;;;;;4.63;0.70;;;;;;;14.88;62.29;99481.31;4963875;28;99204;-77
2023/11/06 08:15:22;;;;;;;5.78;0.90;;;;;;;14.89;62.58;99476.84;4968139;28;99479;-77
2023/11/06 08:17:48;;;;;;;2.20;0.70;;;;;;;14.66;63.25;99476.69;4966214;28;97938;-77
2023/11/06 08:20:15;;;;;;;5.68;1.25;;;;;;;14.99;62.45;99485.84;4963073;28;97326;-77
2023/11/06 08:22:41;;;;;;;1.77;0.40;;;;;;;15.02;62.36;99488.28;4963878;28;102032;-76
2023/11/06 08:25:11;;;;;;;5.28;0.70;;;;;;;15.23;61.85;99499.16;4972405;28;99809;-76
2023/11/06 08:27:39;;;;;;;3.95;1.08;;;;;;;15.28;61.14;99489.88;4969410;28;97319;-76
2023/11/06 08:30:09;;;;;;;2.33;0.47;;;;;;;15.32;60.90;99503.78;4974994;28;96864;-76
2023/11/06 08:32:35;;;;;;;1.38;0.40;;;;;;;15.47;60.37;99498.19;4964877;28;101395;-76
2023/11/06 08:35:04;;;;;;;1.05;0.30;;;;;;;15.45;60.38;99504.56;4969528;28;99230;-76
2023/11/06 08:37:31;;;;;;;2.20;0.50;;;;;;;15.62;60.24;99503.34;4968427;28;96853;-76
2023/11/06 08:39:57;;;;;;;4.53;0.85;;;;;;;15.66;59.60;99505.66;4963783;28;97892;-75
2023/11/06 08:42:25;;;;;;;2.30;0.82;;;;;;;16.03;58.61;99514.31;4970475;28;98940;-75
2023/11/06 08:44:52;;;;;;;3.80;0.95;;;;;;;15.78;58.94;99520.69;4969604;28;97718;-75
2023/11/06 08:47:19;;;;;;;1.75;0.65;;;;;;;16.06;58.25;99524.75;4970628;28;96733;-76
2023/11/06 08:49:45;;;;;;;1.85;0.55;;;;;;;16.21;57.97;99541.38;4969663;28;96788;-76
2023/11/06 08:52:12;;;;;;;2.63;0.77;;;;;;;16.29;58.02;99549.63;4964951;28;99486;-76
2023/11/06 08:54:41;;;;;;;3.08;0.50;;;;;;;16.13;58.09;99560.63;4960514;28;98850;-76
2023/11/06 08:57:07;;;;;;;2.10;0.60;;;;;;;16.00;58.78;99557.22;4968113;28;97496;-76
2023/11/06 08:59:35;;;;;;;2.15;0.45;;;;;;;16.20;58.06;99561.88;4963136;28;97087;-75
2023/11/06 09:02:02;;;;;;;2.30;0.60;;;;;;;15.86;59.10;99565.41;4962885;28;99106;-77
2023/11/06 09:04:29;;;;;;;4.72;0.50;;;;;;;15.73;59.45;99564.63;4967316;28;99305;-76
2023/11/06 09:06:56;;;;;;;1.90;0.43;;;;;;;15.71;59.89;99571.88;4967186;28;97295;-76
2023/11/06 09:09:22;;;;;;;1.42;0.30;;;;;;;15.80;59.72;99560.53;4964148;28;99290;-76
2023/11/06 09:11:49;;;;;;;3.25;0.60;;;;;;;15.74;59.96;99574.31;4966798;28;98818;-76
2023/11/06 09:14:15;;;;;;;3.58;0.60;;;;;;;15.67;60.32;99584.59;4966058;28;98773;-76
2023/11/06 09:16:43;;;;;;;4.63;1.00;;;;;;;15.78;60.14;99591.75;4968703;28;96857;-76
2023/11/06 09:19:09;;;;;;;3.05;0.98;;;;;;;15.75;60.10;99592.00;4968888;28;97004;-76
2023/11/06 09:21:37;;;;;;;3.38;1.20;;;;;;;15.86;59.95;99600.88;4967329;28;99332;-77
2023/11/06 09:24:05;;;;;;;3.72;0.55;;;;;;;15.50;60.84;99598.25;4967410;28;99784;-76
2023/11/06 09:26:31;;;;;;;7.03;0.80;;;;;;;15.52;60.81;99606.97;4965826;28;97180;-76
2023/11/06 09:28:59;;;;;;;1.25;0.70;;;;;;;15.59;60.84;99618.06;4969276;28;98593;-76
2023/11/06 09:31:26;;;;;;;1.98;0.70;;;;;;;15.41;61.53;99623.75;4961886;28;99334;-76
2023/11/06 09:33:54;;;;;;;2.50;0.68;;;;;;;15.69;60.85;99627.06;4963499;28;101760;-76
2023/11/06 09:36:21;;;;;;;2.28;0.68;;;;;;;15.90;59.92;99628.13;4968459;28;97595;-76
2023/11/06 09:38:48;;;;;;;4.03;0.98;;;;;;;16.02;59.27;99640.50;4968245;28;97218;-75
2023/11/06 09:41:14;;;;;;;2.88;0.60;;;;;;;15.80;59.67;99640.44;4969115;28;98936;-75
2023/11/06 09:43:41;;;;;;;5.25;0.77;;;;;;;15.71;60.67;99643.78;4968789;28;98951;-75
2023/11/06 09:46:09;;;;;;;3.20;0.98;;;;;;;15.84;60.35;99634.75;4967338;28;97392;-75
2023/11/06 09:48:37;;;;;;;3.67;0.98;;;;;;;15.75;59.85;99647.94;4964479;28;97126;-76
2023/11/06 09:51:11;;;;;;;6.53;1.17;;;;;;;16.02;59.27;99648.50;4970402;28;99399;-76
2023/11/06 09:53:38;;;;;;;9.48;1.02;;;;;;;16.26;58.49;99652.00;4967090;28;97910;-76
2023/11/06 09:56:05;;;;;;;3.80;0.70;;;;;;;16.10;58.17;99658.59;4967664;28;96979;-76
2023/11/06 09:58:35;;;;;;;5.85;0.90;;;;;;;16.03;58.91;99650.22;4967464;28;97319;-75
2023/11/06 10:01:01;;;;;;;5.60;0.90;;;;;;;15.99;58.89;99648.75;4967743;28;102032;-75
2023/11/06 10:03:27;;;;;;;3.40;0.70;;;;;;;15.72;58.97;99637.50;4967224;28;100016;-76
2023/11/06 10:05:53;;;;;;;3.88;0.90;;;;;;;15.98;58.88;99656.88;4969465;28;96863;-76
2023/11/06 10:08:29;;;;;;;5.65;1.08;;;;;;;16.41;57.56;99665.13;4967690;28;97332;-75
2023/11/06 10:10:59;;;;;;;2.28;0.82;;;;;;;16.19;58.43;99661.44;4964090;28;99540;-76
2023/11/06 10:13:26;;;;;;;3.15;1.08;;;;;;;16.67;57.17;99650.69;4966436;28;99136;-76
2023/11/06 10:15:52;;;;;;;3.70;0.68;;;;;;;16.90;56.60;99668.41;4968447;28;97108;-76
2023/11/06 10:18:20;;;;;;;4.70;0.82;;;;;;;17.16;54.68;99673.50;4969401;28;97006;-76
2023/11/06 10:20:48;;;;;;;2.55;0.57;;;;;;;16.66;55.47;99678.31;4966381;28;102228;-76
2023/11/06 10:23:23;;;;;;;9.30;1.17;;;;;;;16.75;55.38;99680.25;4965949;28;98858;-76
2023/11/06 10:25:51;;;;;;;4.18;0.73;;;;;;;17.14;53.93;99679.78;4968844;28;96895;-76
2023/11/06 10:28:19;;;;;;;7.05;0.80;;;;;;;16.51;54.53;99679.44;4965608;28;96825;-76
2023/11/06 10:30:47;;;;;;;8.02;0.80;;;;;;;16.69;54.52;99699.41;4956352;28;98694;-75
2023/11/06 10:33:14;;;;;;;3.00;0.88;;;;;;;16.86;54.59;99698.13;4967142;28;97575;-76
2023/11/06 10:35:41;;;;;;;6.18;1.05;;;;;;;17.05;53.77;99706.38;4972428;28;98254;-76
2023/11/06 10:38:07;;;;;;;6.05;0.77;;;;;;;17.20;53.43;99699.00;4963752;28;97296;-76
2023/11/06 10:40:34;;;;;;;3.17;0.77;;;;;;;16.93;53.31;99699.34;4968096;28;98078;-75
2023/11/06 10:43:03;;;;;;;3.30;0.70;;;;;;;16.38;54.25;99706.19;4964864;28;98551;-75
2023/11/06 10:45:32;;;;;;;4.28;1.00;;;;;;;16.81;53.96;99716.28;4969362;28;101055;-75
2023/11/06 10:48:10;;;;;;;3.55;0.90;;;;;;;17.10;53.07;99717.53;4965505;28;97838;-76
2023/11/06 10:50:38;;;;;;;3.40;0.90;;;;;;;16.44;53.48;99713.72;4964298;28;98875;-75
2023/11/06 10:53:07;;;;;;;2.88;0.75;;;;;;;16.20;54.48;99715.59;4961466;28;99350;-77
2023/11/06 10:55:35;;;;;;;2.72;0.60;;;;;;;16.23;55.19;99726.88;4962542;28;97076;-76
2023/11/06 10:58:04;;;;;;;2.63;0.73;;;;;;;16.44;53.96;99720.88;4966447;28;97046;-76
2023/11/06 11:00:32;;;;;;;3.30;0.70;;;;;;;16.45;53.89;99728.78;4960450;28;99433;-76
2023/11/06 11:03:00;;;;;;;3.78;0.88;;;;;;;17.01;53.09;99727.09;4960536;28;97810;-76
2023/11/06 11:05:28;;;;;;;8.15;1.00;;;;;;;17.40;51.91;99727.59;4965028;28;98549;-77
2023/11/06 11:07:56;;;;;;;3.70;0.68;;;;;;;17.36;50.43;99731.50;4967975;28;97513;-74
2023/11/06 11:10:26;;;;;;;4.38;1.20;;;;;;;17.04;51.16;99734.03;4962791;28;99327;-76
2023/11/06 11:12:55;;;;;;;4.38;0.90;;;;;;;16.90;51.46;99747.59;4963798;28;99156;-76
2023/11/06 11:15:27;;;;;;;5.70;0.90;;;;;;;16.90;50.68;99736.91;4963205;28;97910;-70
2023/11/06 11:17:58;;;;;;;6.15;0.80;;;;;;;16.39;51.65;99747.91;4964937;28;96834;-70
2023/11/06 11:20:25;;;;;;;3.15;0.80;;;;;;;16.78;51.33;99754.72;4966893;28;99736;-70
2023/11/06 11:23:06;;;;;;;4.38;1.00;;;;;;;16.66;50.71;99758.34;4962926;28;99098;-70
2023/11/06 11:25:54;;;;;;;2.50;0.60;;;;;;;16.23;51.88;99758.00;4969580;28;96754;-70
2023/11/06 11:28:21;;;;;;;4.25;0.70;;;;;;;16.60;50.84;99756.13;4960871;28;97181;-76
2023/11/06 11:30:49;;;;;;;8.38;1.25;;;;;;;16.90;50.30;99764.44;4970184;28;99090;-75